Time;durP1;ratioP1;P1;durP2;ratioP2;P2;SDS_P1;SDS_P2;PMS_P1;PMS_P2;Temp;Humidity;BMP_temperature;BMP_pressure;BME280_temperature;BME280_humidity;BME280_pressure;Samples;Min_cycle;Max_cycle;Signal;HPM_P1;HPM_P2
2020/12/24 00:06:26;;;;;;;1999.90;999.90;;;;;;;12.86;82.46;99986.72;15721544;28;20045;-57
2020/12/24 00:13:59;;;;;;;1999.90;999.90;;;;;;;12.80;82.35;99977.78;15731299;28;20049;-56
2020/12/24 00:21:36;;;;;;;1999.90;999.90;;;;;;;12.96;81.75;99970.13;15717727;28;20048;-59
2020/12/24 00:29:10;;;;;;;1999.90;999.90;;;;;;;12.79;81.97;99983.72;15702608;28;20083;-58
2020/12/24 00:36:43;;;;;;;1999.90;999.90;;;;;;;12.67;81.77;99982.69;15721970;28;20364;-59
2020/12/24 00:44:16;;;;;;;1999.90;999.90;;;;;;;12.66;81.76;99983.88;15694534;28;20061;-59
2020/12/24 00:51:49;;;;;;;1999.90;999.90;;;;;;;12.48;81.74;99979.84;15723803;28;20041;-58
2020/12/24 00:59:22;;;;;;;1999.90;999.90;;;;;;;12.47;81.12;99992.19;15706190;28;20051;-59
2020/12/24 01:06:55;;;;;;;1999.90;999.90;;;;;;;12.41;81.46;99974.91;15698630;28;20040;-59
2020/12/24 01:14:28;;;;;;;1999.90;999.90;;;;;;;12.53;81.14;99968.38;15713217;28;20456;-57
2020/12/24 01:22:01;;;;;;;1999.90;999.90;;;;;;;12.61;80.60;99983.31;15694608;28;20486;-58
2020/12/24 01:29:34;;;;;;;1999.90;999.90;;;;;;;12.64;80.16;99974.22;15716635;28;20044;-57
2020/12/24 01:37:07;;;;;;;1999.90;999.90;;;;;;;12.43;80.43;99958.56;15683943;28;20071;-58
2020/12/24 01:44:40;;;;;;;1999.90;999.90;;;;;;;12.29;80.64;99949.00;15695819;28;20053;-58
2020/12/24 01:52:30;;;;;;;1999.90;999.90;;;;;;;12.37;80.63;99934.81;15705738;28;20052;-58
2020/12/24 02:00:05;;;;;;;1999.90;999.90;;;;;;;12.33;80.29;99919.13;15710060;28;20163;-58
2020/12/24 02:07:45;;;;;;;1999.90;999.90;;;;;;;12.21;80.52;99914.47;15702909;28;20128;-58
2020/12/24 02:15:18;;;;;;;1999.90;999.90;;;;;;;12.28;80.85;99913.81;15720493;28;20538;-58
2020/12/24 02:22:51;;;;;;;1999.90;999.90;;;;;;;12.21;80.64;99897.69;15679946;28;20052;-58
2020/12/24 02:30:24;;;;;;;1999.90;999.90;;;;;;;12.12;80.93;99888.69;15719264;28;20068;-58
2020/12/24 02:37:57;;;;;;;1999.90;999.90;;;;;;;12.05;81.10;99896.88;15700487;28;20045;-56
2020/12/24 02:45:30;;;;;;;1999.90;999.90;;;;;;;11.93;80.85;99883.81;15716060;28;20052;-54
2020/12/24 02:53:04;;;;;;;1999.90;999.90;;;;;;;11.77;81.84;99897.75;15699041;28;20310;-58
2020/12/24 03:00:37;;;;;;;1999.90;999.90;;;;;;;11.83;81.80;99889.97;15683985;28;20048;-58
2020/12/24 03:08:10;;;;;;;1999.90;999.90;;;;;;;11.97;81.86;99870.72;15723887;28;20047;-58
2020/12/24 03:15:43;;;;;;;1999.90;999.90;;;;;;;12.12;80.89;99847.53;15725682;28;20045;-57
2020/12/24 03:23:17;;;;;;;1999.90;999.90;;;;;;;12.20;80.78;99844.91;15739726;22;20059;-63
2020/12/24 03:30:49;;;;;;;1999.90;999.90;;;;;;;12.21;79.95;99829.75;15770017;28;20056;-63
2020/12/24 03:38:23;;;;;;;1999.90;999.90;;;;;;;12.14;80.20;99850.78;15703199;28;20064;-63
2020/12/24 03:45:56;;;;;;;1999.90;999.90;;;;;;;12.08;81.25;99859.81;15717918;28;20037;-63
2020/12/24 03:53:29;;;;;;;1999.90;999.90;;;;;;;12.17;80.86;99837.22;15684530;28;20101;-63
2020/12/24 04:01:02;;;;;;;1999.90;999.90;;;;;;;12.15;80.38;99829.22;15715744;28;20045;-64
2020/12/24 04:08:35;;;;;;;1999.90;999.90;;;;;;;12.18;79.87;99831.28;15711408;28;20438;-63
2020/12/24 04:16:09;;;;;;;1999.90;999.90;;;;;;;12.18;79.56;99810.88;15710005;28;20449;-63
2020/12/24 04:23:44;;;;;;;1999.90;999.90;;;;;;;12.04;79.58;99806.59;15705945;28;20510;-63
2020/12/24 04:31:17;;;;;;;1999.90;999.90;;;;;;;12.01;77.65;99796.16;15715088;28;20064;-63
2020/12/24 04:38:51;;;;;;;1999.90;999.90;;;;;;;11.63;78.05;99821.16;15721062;28;20037;-64
2020/12/24 04:46:28;;;;;;;1999.90;999.90;;;;;;;11.75;77.47;99815.47;15721360;28;20393;-64
2020/12/24 04:54:04;;;;;;;1999.90;999.90;;;;;;;11.87;76.84;99815.38;15726430;28;20045;-63
2020/12/24 05:01:37;;;;;;;1999.90;999.90;;;;;;;11.80;77.40;99813.25;15721518;28;20061;-64
2020/12/24 05:09:11;;;;;;;1999.90;999.90;;;;;;;11.85;78.19;99826.94;15726835;28;20457;-63
2020/12/24 05:16:57;;;;;;;1999.90;999.90;;;;;;;11.74;78.45;99836.19;15712331;28;20078;-63
2020/12/24 05:24:33;;;;;;;1999.90;999.90;;;;;;;11.73;77.10;99840.19;15736242;28;20045;-63
2020/12/24 05:32:06;;;;;;;1999.90;999.90;;;;;;;11.82;76.54;99843.63;15661583;28;20043;-64
2020/12/24 05:39:41;;;;;;;1999.90;999.90;;;;;;;11.76;76.35;99836.66;15731927;28;20513;-63
2020/12/24 05:47:14;;;;;;;1999.90;999.90;;;;;;;11.77;74.86;99816.72;15684148;28;20296;-63
2020/12/24 05:54:48;;;;;;;1999.90;999.90;;;;;;;11.65;75.53;99827.19;15665858;28;20057;-65
2020/12/24 06:02:24;;;;;;;1999.90;999.90;;;;;;;11.69;75.33;99836.50;15716779;28;20432;-63
2020/12/24 06:10:05;;;;;;;1999.90;999.90;;;;;;;11.27;75.47;99825.84;15724077;28;20045;-63
2020/12/24 06:17:41;;;;;;;1999.90;999.90;;;;;;;11.34;74.50;99834.41;15703718;28;20087;-63
2020/12/24 06:25:15;;;;;;;1999.90;999.90;;;;;;;11.13;74.04;99836.63;15680002;28;20183;-63
2020/12/24 06:32:50;;;;;;;1999.90;999.90;;;;;;;10.74;73.81;99850.34;15701552;28;20081;-63
2020/12/24 06:40:30;;;;;;;1999.90;999.90;;;;;;;10.51;73.44;99850.03;15704156;28;20073;-64
2020/12/24 06:48:21;;;;;;;1999.90;999.90;;;;;;;10.48;71.88;99849.94;15700725;28;20048;-64
2020/12/24 06:56:23;;;;;;;1999.90;999.90;;;;;;;10.58;70.87;99858.63;15702216;28;20044;-63
2020/12/24 07:03:57;;;;;;;1999.90;999.90;;;;;;;10.38;71.04;99854.03;15715788;28;20052;-63
2020/12/24 07:11:41;;;;;;;1999.90;999.90;;;;;;;10.13;71.15;99865.22;15699594;28;20493;-63
2020/12/24 07:19:17;;;;;;;1999.90;999.90;;;;;;;10.07;70.73;99851.88;15684218;28;20040;-63
2020/12/24 07:26:54;;;;;;;1999.90;999.90;;;;;;;9.95;70.94;99854.66;15749099;28;20110;-63
2020/12/24 07:34:29;;;;;;;1999.90;999.90;;;;;;;9.68;70.70;99856.16;15734710;28;20421;-62
2020/12/24 07:42:02;;;;;;;1999.90;999.90;;;;;;;9.79;69.80;99858.16;15724447;28;20509;-64
2020/12/24 07:49:48;;;;;;;1999.90;999.90;;;;;;;9.84;68.99;99846.78;15702225;28;20397;-63
2020/12/24 07:57:22;;;;;;;1999.90;999.90;;;;;;;9.83;68.71;99852.72;15710333;28;20414;-63
2020/12/24 08:04:55;;;;;;;1999.90;999.90;;;;;;;9.70;68.92;99851.91;15689641;28;20053;-63
2020/12/24 08:12:28;;;;;;;1999.90;999.90;;;;;;;9.73;68.12;99853.97;15678823;28;20409;-63
2020/12/24 08:20:06;;;;;;;1999.90;999.90;;;;;;;10.06;67.05;99845.47;15713379;28;20052;-64
2020/12/24 08:27:40;;;;;;;1999.90;999.90;;;;;;;9.92;67.17;99847.03;15719642;28;20041;-62
2020/12/24 08:35:15;;;;;;;1999.90;999.90;;;;;;;10.22;66.68;99842.81;15679464;28;20045;-63
2020/12/24 08:42:53;;;;;;;1999.90;999.90;;;;;;;9.95;67.10;99830.41;15717171;28;20493;-63
2020/12/24 08:50:30;;;;;;;1999.90;999.90;;;;;;;10.09;66.51;99827.22;15707260;28;20076;-63
2020/12/24 08:58:11;;;;;;;1999.90;999.90;;;;;;;10.05;65.99;99817.97;15701662;28;20041;-62
2020/12/24 09:05:43;;;;;;;1999.90;999.90;;;;;;;10.23;66.07;99816.56;15684957;28;20065;-63
2020/12/24 09:13:17;;;;;;;1999.90;999.90;;;;;;;10.36;65.48;99811.75;15711356;28;20394;-64
2020/12/24 09:20:50;;;;;;;1999.90;999.90;;;;;;;10.33;65.62;99818.06;15740240;22;20059;-57
2020/12/24 09:28:26;;;;;;;1999.90;999.90;;;;;;;10.36;66.15;99818.16;15704201;28;20045;-56
2020/12/24 09:36:00;;;;;;;1999.90;999.90;;;;;;;10.26;66.14;99823.41;15659868;28;20037;-54
2020/12/24 09:43:35;;;;;;;1999.90;999.90;;;;;;;10.31;65.49;99804.44;15647631;28;20057;-56
2020/12/24 09:51:09;;;;;;;1999.90;999.90;;;;;;;10.46;65.60;99811.25;15636993;28;20478;-56
2020/12/24 09:58:43;;;;;;;1999.90;999.90;;;;;;;10.37;66.78;99797.47;15632046;28;20051;-55
2020/12/24 10:06:16;;;;;;;1999.90;999.90;;;;;;;10.29;65.68;99790.03;15644200;28;20414;-56
2020/12/24 10:13:50;;;;;;;1999.90;999.90;;;;;;;10.56;64.58;99771.72;15660299;28;20053;-57
2020/12/24 10:21:25;;;;;;;1999.90;999.90;;;;;;;10.56;64.63;99779.25;15617935;28;20386;-55
2020/12/24 10:28:58;;;;;;;1999.90;999.90;;;;;;;10.43;64.53;99766.53;15629706;28;20041;-57
2020/12/24 10:36:31;;;;;;;1999.90;999.90;;;;;;;10.44;65.65;99774.56;15620898;28;20041;-57
2020/12/24 10:44:05;;;;;;;1999.90;999.90;;;;;;;10.31;65.64;99770.97;15639249;28;20049;-56
2020/12/24 10:51:38;;;;;;;1999.90;999.90;;;;;;;9.84;68.44;99763.19;15637323;28;20052;-56
2020/12/24 10:59:11;;;;;;;1999.90;999.90;;;;;;;9.76;72.15;99782.81;15624274;28;20055;-53
2020/12/24 11:06:45;;;;;;;1999.90;999.90;;;;;;;9.61;73.61;99778.78;15636130;28;20037;-59
2020/12/24 11:14:19;;;;;;;1999.90;999.90;;;;;;;9.49;75.46;99787.16;15659917;28;20056;-52
2020/12/24 11:21:52;;;;;;;1999.90;999.90;;;;;;;9.00;74.46;99789.06;15640501;28;20037;-54
2020/12/24 11:29:26;;;;;;;1999.90;999.90;;;;;;;8.46;74.32;99803.84;15655211;28;20041;-55
2020/12/24 11:36:59;;;;;;;1999.90;999.90;;;;;;;8.38;71.54;99801.94;15635916;28;20060;-56
2020/12/24 11:44:32;;;;;;;1999.90;999.90;;;;;;;8.08;70.72;99792.84;15668440;28;20061;-53
2020/12/24 11:52:05;;;;;;;1999.90;999.90;;;;;;;7.97;69.78;99799.97;15678881;28;20041;-54
2020/12/24 11:59:40;;;;;;;1999.90;999.90;;;;;;;7.78;70.73;99797.63;15637197;28;20457;-54
2020/12/24 12:07:12;;;;;;;1999.90;999.90;;;;;;;7.70;72.05;99804.84;15643721;28;20072;-56
2020/12/24 12:14:46;;;;;;;1999.90;999.90;;;;;;;7.76;73.49;99814.63;15679911;28;20053;-56
2020/12/24 12:22:19;;;;;;;1999.90;999.90;;;;;;;7.50;74.48;99822.28;15639787;28;20048;-55
2020/12/24 12:29:53;;;;;;;1999.90;999.90;;;;;;;7.01;76.78;99844.03;15685461;28;20521;-54
2020/12/24 12:37:26;;;;;;;1999.90;999.90;;;;;;;6.95;79.37;99848.91;15668315;28;20045;-52
2020/12/24 12:45:00;;;;;;;1999.90;999.90;;;;;;;7.00;80.21;99881.22;15685828;28;20041;-55
2020/12/24 12:52:32;;;;;;;;;;;;;;;7.22;78.27;99896.84;15685908;28;20394;-55
2020/12/24 13:00:08;;;;;;;1999.90;999.90;;;;;;;6.77;77.93;99921.38;15685344;28;19927;-55
2020/12/24 13:07:42;;;;;;;1999.90;999.90;;;;;;;6.42;78.72;99940.75;15666343;28;20052;-53
2020/12/24 13:15:16;;;;;;;1999.90;999.90;;;;;;;6.26;78.57;99965.34;15684523;28;20299;-53
2020/12/24 13:22:51;;;;;;;1999.90;999.90;;;;;;;6.25;77.67;99991.44;15665869;28;20083;-55
2020/12/24 13:30:26;;;;;;;1999.90;999.90;;;;;;;6.19;77.59;100000.22;15683521;28;20037;-53
2020/12/24 13:37:59;;;;;;;1999.90;999.90;;;;;;;6.04;77.06;100018.06;15682926;28;20513;-56
2020/12/24 13:45:33;;;;;;;1999.90;999.90;;;;;;;5.74;77.95;100034.38;15682370;28;20084;-55
2020/12/24 13:53:06;;;;;;;1999.90;999.90;;;;;;;5.71;77.43;100050.75;15664947;28;20041;-56
2020/12/24 14:00:39;;;;;;;1999.90;999.90;;;;;;;5.80;77.31;100071.00;15681509;28;20040;-57
2020/12/24 14:08:12;;;;;;;1999.90;999.90;;;;;;;5.56;78.55;100090.72;15681699;28;20048;-53
2020/12/24 14:15:45;;;;;;;1999.90;999.90;;;;;;;5.70;78.71;100110.84;15680436;28;20056;-56
2020/12/24 14:23:19;;;;;;;1999.90;999.90;;;;;;;5.68;78.24;100121.44;15663341;28;20083;-57
2020/12/24 14:30:54;;;;;;;1999.90;999.90;;;;;;;5.86;79.08;100125.13;15681540;28;20359;-55
2020/12/24 14:38:26;;;;;;;1999.90;999.90;;;;;;;5.92;78.33;100148.00;15661887;28;20048;-54
2020/12/24 14:46:00;;;;;;;1999.90;999.90;;;;;;;6.10;77.55;100154.47;15680252;28;20049;-57
2020/12/24 14:53:33;;;;;;;1999.90;999.90;;;;;;;6.11;77.57;100176.31;15678817;28;20048;-57
2020/12/24 15:01:07;;;;;;;;;;;;;;;6.16;77.74;100194.78;15660931;28;20508;-57
2020/12/24 15:08:40;;;;;;;1999.90;999.90;;;;;;;6.08;78.45;100197.16;15678259;28;19927;-58
2020/12/24 15:16:13;;;;;;;1999.90;999.90;;;;;;;6.21;78.36;100223.16;15660238;28;20053;-56
2020/12/24 15:23:47;;;;;;;1999.90;999.90;;;;;;;6.38;77.60;100238.25;15716505;22;20508;-62
2020/12/24 15:31:21;;;;;;;1999.90;999.90;;;;;;;6.46;77.59;100248.56;15813409;28;20067;-62
2020/12/24 15:38:55;;;;;;;1999.90;999.90;;;;;;;6.46;77.92;100257.72;15814499;28;20036;-61
2020/12/24 15:46:32;;;;;;;1999.90;999.90;;;;;;;6.51;78.02;100256.75;15803926;28;20051;-62
2020/12/24 15:54:04;;;;;;;1999.90;999.90;;;;;;;6.74;77.32;100266.66;15785144;28;20044;-61
2020/12/24 16:01:38;;;;;;;1999.90;999.90;;;;;;;6.54;77.98;100292.16;15764357;28;20032;-67
2020/12/24 16:09:11;;;;;;;1999.90;999.90;;;;;;;6.63;78.40;100298.56;15779958;28;20039;-65
2020/12/24 16:16:45;;;;;;;1999.90;999.90;;;;;;;6.84;77.72;100308.00;15757039;28;20119;-58
2020/12/24 16:24:18;;;;;;;1999.90;999.90;;;;;;;6.82;77.53;100324.13;15781972;28;20047;-59
2020/12/24 16:31:51;;;;;;;1999.90;999.90;;;;;;;7.04;77.46;100341.88;15776746;28;20080;-62
2020/12/24 16:39:25;;;;;;;1999.90;999.90;;;;;;;7.20;77.19;100362.53;15772050;28;20040;-62
2020/12/24 16:46:58;;;;;;;1999.90;999.90;;;;;;;7.19;77.03;100370.03;15790098;28;20044;-63
2020/12/24 16:54:31;;;;;;;;;;;;;;;7.13;77.07;100378.81;15785785;28;20317;-63
2020/12/24 17:02:05;;;;;;;1999.90;999.90;;;;;;;7.17;77.24;100383.38;15750610;28;19924;-63
2020/12/24 17:09:37;;;;;;;;;;;;;;;7.30;76.48;100387.22;15782923;28;20047;-63
2020/12/24 17:17:11;;;;;;;1999.90;999.90;;;;;;;7.33;76.38;100416.31;15765379;28;20368;-59
2020/12/24 17:24:44;;;;;;;1999.90;999.90;;;;;;;7.14;76.98;100425.66;15781905;28;20067;-63
2020/12/24 17:32:19;;;;;;;1999.90;999.90;;;;;;;7.24;76.55;100441.22;15746272;28;20044;-66
2020/12/24 17:39:52;;;;;;;1999.90;999.90;;;;;;;7.09;77.68;100450.78;15776347;28;20052;-61
2020/12/24 17:47:26;;;;;;;1999.90;999.90;;;;;;;7.41;76.71;100455.22;15756926;28;20457;-59
2020/12/24 17:54:58;;;;;;;1999.90;999.90;;;;;;;7.30;77.27;100458.56;15763014;28;20110;-60
2020/12/24 18:02:35;;;;;;;1999.90;999.90;;;;;;;7.66;75.77;100481.47;15768365;28;20127;-62
2020/12/24 18:10:08;;;;;;;1999.90;999.90;;;;;;;7.06;77.53;100490.22;15767265;28;20040;-61
2020/12/24 18:17:41;;;;;;;1999.90;999.90;;;;;;;7.12;77.53;100497.31;15760922;28;20040;-61
2020/12/24 18:25:14;;;;;;;1999.90;999.90;;;;;;;7.40;76.49;100511.88;15775390;28;20472;-62
2020/12/24 18:32:48;;;;;;;1999.90;999.90;;;;;;;7.08;77.77;100512.91;15796147;28;20044;-64
2020/12/24 18:40:21;;;;;;;1999.90;999.90;;;;;;;7.41;76.51;100518.25;15776858;28;20067;-63
2020/12/24 18:47:54;;;;;;;1999.90;999.90;;;;;;;7.19;77.13;100532.91;15824752;28;20040;-64
2020/12/24 18:55:27;;;;;;;1999.90;999.90;;;;;;;7.23;77.12;100551.41;15773639;28;20106;-61
2020/12/24 19:03:01;;;;;;;1999.90;999.90;;;;;;;7.06;77.51;100556.00;15775271;28;20036;-61
2020/12/24 19:10:33;;;;;;;1999.90;999.90;;;;;;;7.43;76.37;100565.94;15766547;28;20040;-65
2020/12/24 19:18:07;;;;;;;1999.90;999.90;;;;;;;7.34;76.42;100574.19;15769763;28;20040;-63
2020/12/24 19:25:39;;;;;;;1999.90;999.90;;;;;;;7.26;76.24;100577.72;15761867;28;20679;-60
2020/12/24 19:33:13;;;;;;;1999.90;999.90;;;;;;;7.43;75.99;100588.97;15781724;28;20362;-63
2020/12/24 19:40:45;;;;;;;1999.90;999.90;;;;;;;7.48;75.64;100601.88;15780777;28;20044;-64
2020/12/24 19:48:19;;;;;;;1999.90;999.90;;;;;;;7.44;75.59;100596.16;15768611;28;20064;-65
2020/12/24 19:55:51;;;;;;;1999.90;999.90;;;;;;;7.38;75.65;100602.94;15744388;28;20064;-64
2020/12/24 20:03:26;;;;;;;1999.90;999.90;;;;;;;7.39;75.74;100612.91;15743178;28;20537;-64
2020/12/24 20:10:59;;;;;;;1999.90;999.90;;;;;;;7.49;75.26;100611.84;15773039;28;20036;-63
2020/12/24 20:18:32;;;;;;;1999.90;999.90;;;;;;;7.29;75.90;100627.03;15784647;28;20147;-63
2020/12/24 20:26:05;;;;;;;1999.90;999.90;;;;;;;7.44;75.70;100632.25;15795563;28;20066;-63
2020/12/24 20:33:39;;;;;;;1999.90;999.90;;;;;;;7.43;75.05;100632.56;15785115;28;20044;-63
2020/12/24 20:41:12;;;;;;;1999.90;999.90;;;;;;;7.53;74.89;100647.03;15768760;28;20499;-62
2020/12/24 20:48:47;;;;;;;1999.90;999.90;;;;;;;7.39;75.21;100654.56;15797193;28;20320;-63
2020/12/24 20:56:21;;;;;;;1999.90;999.90;;;;;;;7.38;74.30;100660.44;15770329;28;20493;-62
2020/12/24 21:03:55;;;;;;;1999.90;999.90;;;;;;;7.35;74.75;100642.44;15771805;28;20481;-62
2020/12/24 21:11:30;;;;;;;1999.90;999.90;;;;;;;7.32;75.69;100647.81;15776901;28;20064;-61
2020/12/24 21:19:04;;;;;;;1999.90;999.90;;;;;;;7.48;75.07;100649.09;15782829;28;20051;-64
2020/12/24 21:26:37;;;;;;;1999.90;999.90;;;;;;;7.28;75.65;100660.66;15773746;22;20044;-54
2020/12/24 21:34:11;;;;;;;1999.90;999.90;;;;;;;7.19;75.82;100660.56;15739627;28;20143;-55
2020/12/24 21:41:43;;;;;;;1999.90;999.90;;;;;;;7.41;74.69;100666.19;15704881;28;20310;-54
2020/12/24 21:49:17;;;;;;;1999.90;999.90;;;;;;;7.51;74.26;100673.47;15722235;28;20102;-57
2020/12/24 21:56:50;;;;;;;1999.90;999.90;;;;;;;7.41;74.83;100682.84;15701629;28;20143;-51
2020/12/24 22:04:24;;;;;;;1999.90;999.90;;;;;;;7.24;75.38;100686.28;15698789;28;20047;-55
2020/12/24 22:11:56;;;;;;;;;;;;;;;7.49;74.30;100686.81;15682636;28;20142;-54
2020/12/24 22:19:31;;;;;;;1999.90;999.90;;;;;;;7.42;74.12;100703.09;15706415;28;19928;-53
2020/12/24 22:27:03;;;;;;;1999.90;999.90;;;;;;;7.29;74.27;100699.22;15703429;28;20044;-50
2020/12/24 22:34:37;;;;;;;1999.90;999.90;;;;;;;7.33;74.71;100714.13;15702595;28;20044;-51
2020/12/24 22:42:11;;;;;;;1999.90;999.90;;;;;;;7.38;74.29;100713.19;15681184;28;20414;-52
2020/12/24 22:49:45;;;;;;;1999.90;999.90;;;;;;;7.32;74.00;100717.22;15702366;28;20044;-49
2020/12/24 22:57:17;;;;;;;;;;;;;;;7.27;74.09;100726.47;15707766;28;20044;-54
2020/12/24 23:04:51;;;;;;;1999.90;999.90;;;;;;;7.19;74.28;100730.81;15711345;28;19956;-52
2020/12/24 23:12:24;;;;;;;1999.90;999.90;;;;;;;7.18;73.98;100740.25;15718599;28;20045;-50
2020/12/24 23:19:57;;;;;;;1999.90;999.90;;;;;;;7.06;74.54;100741.91;15694297;28;20444;-54
2020/12/24 23:27:30;;;;;;;1999.90;999.90;;;;;;;7.29;73.48;100762.22;15693232;28;20044;-55
2020/12/24 23:35:07;;;;;;;1999.90;999.90;;;;;;;7.10;74.28;100759.59;15698789;28;20463;-49
2020/12/24 23:42:40;;;;;;;1999.90;999.90;;;;;;;7.06;74.30;100767.69;15706050;28;20041;-52
2020/12/24 23:50:14;;;;;;;1999.90;999.90;;;;;;;7.17;74.47;100766.34;15721482;28;20045;-50
2020/12/24 23:57:46;;;;;;;1999.90;999.90;;;;;;;7.20;73.88;100781.59;15710070;28;20053;-52
